sensor_id;sensor_type;location;lat;lon;timestamp;P1;durP1;ratioP1;P2;durP2;ratioP2
57291;SDS011;43144;50.972;18.220;2022-12-18T00:08:34;79.60;;;40.80;;
57291;SDS011;43144;50.972;18.220;2022-12-18T00:18:29;89.90;;;41.00;;
57291;SDS011;43144;50.972;18.220;2022-12-18T00:28:20;79.10;;;41.00;;
57291;SDS011;43144;50.972;18.220;2022-12-18T00:38:09;71.70;;;34.40;;
57291;SDS011;43144;50.972;18.220;2022-12-18T00:47:58;58.20;;;31.20;;
57291;SDS011;43144;50.972;18.220;2022-12-18T00:57:46;74.10;;;39.60;;
57291;SDS011;43144;50.972;18.220;2022-12-18T01:07:36;70.30;;;39.20;;
57291;SDS011;43144;50.972;18.220;2022-12-18T01:17:26;66.40;;;36.30;;
57291;SDS011;43144;50.972;18.220;2022-12-18T01:27:15;76.70;;;31.70;;
57291;SDS011;43144;50.972;18.220;2022-12-18T01:37:04;72.20;;;37.80;;
57291;SDS011;43144;50.972;18.220;2022-12-18T01:47:11;75.50;;;32.80;;
57291;SDS011;43144;50.972;18.220;2022-12-18T01:57:02;73.00;;;37.40;;
57291;SDS011;43144;50.972;18.220;2022-12-18T02:06:53;48.80;;;30.30;;
57291;SDS011;43144;50.972;18.220;2022-12-18T02:16:50;45.30;;;25.90;;
57291;SDS011;43144;50.972;18.220;2022-12-18T02:41:37;40.00;;;27.90;;
57291;SDS011;43144;50.972;18.220;2022-12-18T02:51:32;69.20;;;33.30;;
57291;SDS011;43144;50.972;18.220;2022-12-18T03:16:17;51.50;;;28.20;;
57291;SDS011;43144;50.972;18.220;2022-12-18T03:26:14;67.80;;;35.20;;
57291;SDS011;43144;50.972;18.220;2022-12-18T03:36:07;68.80;;;34.30;;
57291;SDS011;43144;50.972;18.220;2022-12-18T03:46:01;57.70;;;26.80;;
57291;SDS011;43144;50.972;18.220;2022-12-18T03:55:55;39.10;;;23.70;;
57291;SDS011;43144;50.972;18.220;2022-12-18T04:20:31;55.50;;;32.30;;
57291;SDS011;43144;50.972;18.220;2022-12-18T04:30:20;23.90;;;12.10;;
57291;SDS011;43144;50.972;18.220;2022-12-18T04:40:09;60.10;;;28.40;;
57291;SDS011;43144;50.972;18.220;2022-12-18T04:57:29;45.60;;;24.20;;
57291;SDS011;43144;50.972;18.220;2022-12-18T05:07:18;50.80;;;26.30;;
57291;SDS011;43144;50.972;18.220;2022-12-18T05:17:06;69.00;;;30.40;;
57291;SDS011;43144;50.972;18.220;2022-12-18T05:34:23;66.20;;;37.00;;
57291;SDS011;43144;50.972;18.220;2022-12-18T05:44:11;76.50;;;33.10;;
57291;SDS011;43144;50.972;18.220;2022-12-18T05:54:00;57.90;;;31.20;;
57291;SDS011;43144;50.972;18.220;2022-12-18T06:03:50;143.90;;;71.20;;
57291;SDS011;43144;50.972;18.220;2022-12-18T06:13:42;47.60;;;26.90;;
57291;SDS011;43144;50.972;18.220;2022-12-18T06:23:38;156.00;;;70.10;;
57291;SDS011;43144;50.972;18.220;2022-12-18T06:33:29;66.10;;;31.00;;
57291;SDS011;43144;50.972;18.220;2022-12-18T06:43:21;69.30;;;32.50;;
57291;SDS011;43144;50.972;18.220;2022-12-18T06:53:15;55.90;;;31.50;;
57291;SDS011;43144;50.972;18.220;2022-12-18T07:03:03;68.40;;;37.20;;
57291;SDS011;43144;50.972;18.220;2022-12-18T07:12:52;73.10;;;36.20;;
57291;SDS011;43144;50.972;18.220;2022-12-18T07:22:41;73.30;;;36.20;;
57291;SDS011;43144;50.972;18.220;2022-12-18T07:32:33;50.80;;;25.90;;
57291;SDS011;43144;50.972;18.220;2022-12-18T07:42:21;87.70;;;41.10;;
57291;SDS011;43144;50.972;18.220;2022-12-18T07:52:11;133.60;;;68.90;;
57291;SDS011;43144;50.972;18.220;2022-12-18T08:02:00;98.20;;;41.50;;
57291;SDS011;43144;50.972;18.220;2022-12-18T08:11:48;88.10;;;53.70;;
57291;SDS011;43144;50.972;18.220;2022-12-18T08:21:37;91.20;;;38.60;;
57291;SDS011;43144;50.972;18.220;2022-12-18T08:38:51;85.00;;;41.90;;
57291;SDS011;43144;50.972;18.220;2022-12-18T08:48:40;108.20;;;54.60;;
57291;SDS011;43144;50.972;18.220;2022-12-18T09:05:54;82.60;;;44.20;;
57291;SDS011;43144;50.972;18.220;2022-12-18T09:15:42;94.50;;;48.40;;
57291;SDS011;43144;50.972;18.220;2022-12-18T09:25:35;49.10;;;25.70;;
57291;SDS011;43144;50.972;18.220;2022-12-18T09:35:29;87.10;;;39.50;;
57291;SDS011;43144;50.972;18.220;2022-12-18T09:45:20;179.40;;;93.00;;
57291;SDS011;43144;50.972;18.220;2022-12-18T09:55:17;84.30;;;46.40;;
57291;SDS011;43144;50.972;18.220;2022-12-18T10:05:13;119.90;;;49.60;;
57291;SDS011;43144;50.972;18.220;2022-12-18T10:15:13;88.70;;;43.70;;
57291;SDS011;43144;50.972;18.220;2022-12-18T10:25:17;74.00;;;41.50;;
57291;SDS011;43144;50.972;18.220;2022-12-18T10:35:19;87.50;;;42.50;;
57291;SDS011;43144;50.972;18.220;2022-12-18T10:45:37;64.60;;;33.80;;
57291;SDS011;43144;50.972;18.220;2022-12-18T10:55:40;97.50;;;52.50;;
57291;SDS011;43144;50.972;18.220;2022-12-18T11:06:02;89.80;;;46.90;;
57291;SDS011;43144;50.972;18.220;2022-12-18T11:15:56;76.60;;;43.10;;
57291;SDS011;43144;50.972;18.220;2022-12-18T11:33:34;96.20;;;47.30;;
57291;SDS011;43144;50.972;18.220;2022-12-18T11:43:27;63.40;;;38.20;;
57291;SDS011;43144;50.972;18.220;2022-12-18T11:53:19;103.50;;;53.40;;
57291;SDS011;43144;50.972;18.220;2022-12-18T12:03:43;82.50;;;47.30;;
57291;SDS011;43144;50.972;18.220;2022-12-18T12:21:18;99.00;;;43.70;;
57291;SDS011;43144;50.972;18.220;2022-12-18T12:31:19;98.70;;;45.10;;
57291;SDS011;43144;50.972;18.220;2022-12-18T12:48:51;121.90;;;58.40;;
57291;SDS011;43144;50.972;18.220;2022-12-18T12:58:45;152.70;;;83.40;;
57291;SDS011;43144;50.972;18.220;2022-12-18T13:08:55;109.90;;;51.00;;
57291;SDS011;43144;50.972;18.220;2022-12-18T13:18:56;96.50;;;50.10;;
57291;SDS011;43144;50.972;18.220;2022-12-18T13:28:57;106.80;;;49.20;;
57291;SDS011;43144;50.972;18.220;2022-12-18T13:47:24;96.10;;;47.70;;
57291;SDS011;43144;50.972;18.220;2022-12-18T14:04:49;77.30;;;37.90;;
57291;SDS011;43144;50.972;18.220;2022-12-18T14:09:46;96.60;;;48.60;;
57291;SDS011;43144;50.972;18.220;2022-12-18T14:19:38;68.30;;;38.10;;
57291;SDS011;43144;50.972;18.220;2022-12-18T14:29:43;94.50;;;53.90;;
57291;SDS011;43144;50.972;18.220;2022-12-18T14:39:34;85.90;;;48.80;;
57291;SDS011;43144;50.972;18.220;2022-12-18T14:49:24;116.80;;;55.40;;
57291;SDS011;43144;50.972;18.220;2022-12-18T14:59:21;78.50;;;40.50;;
57291;SDS011;43144;50.972;18.220;2022-12-18T15:09:37;74.70;;;40.40;;
57291;SDS011;43144;50.972;18.220;2022-12-18T15:19:43;91.50;;;47.80;;
57291;SDS011;43144;50.972;18.220;2022-12-18T15:30:00;132.00;;;64.90;;
57291;SDS011;43144;50.972;18.220;2022-12-18T15:32:42;157.20;;;94.60;;
57291;SDS011;43144;50.972;18.220;2022-12-18T15:42:34;119.20;;;62.50;;
57291;SDS011;43144;50.972;18.220;2022-12-18T15:52:24;113.70;;;61.90;;
57291;SDS011;43144;50.972;18.220;2022-12-18T16:02:17;112.50;;;57.20;;
57291;SDS011;43144;50.972;18.220;2022-12-18T16:12:10;113.40;;;66.70;;
57291;SDS011;43144;50.972;18.220;2022-12-18T16:22:04;178.80;;;93.40;;
57291;SDS011;43144;50.972;18.220;2022-12-18T16:31:56;131.20;;;61.30;;
57291;SDS011;43144;50.972;18.220;2022-12-18T16:41:48;91.00;;;46.10;;
57291;SDS011;43144;50.972;18.220;2022-12-18T16:51:37;106.70;;;50.60;;
57291;SDS011;43144;50.972;18.220;2022-12-18T17:01:27;128.20;;;59.30;;
57291;SDS011;43144;50.972;18.220;2022-12-18T17:18:42;181.30;;;79.60;;
57291;SDS011;43144;50.972;18.220;2022-12-18T17:28:33;210.80;;;88.50;;
57291;SDS011;43144;50.972;18.220;2022-12-18T17:38:25;108.90;;;56.20;;
57291;SDS011;43144;50.972;18.220;2022-12-18T17:48:14;132.40;;;54.10;;
57291;SDS011;43144;50.972;18.220;2022-12-18T17:58:03;120.20;;;47.60;;
57291;SDS011;43144;50.972;18.220;2022-12-18T18:07:53;163.20;;;73.00;;
57291;SDS011;43144;50.972;18.220;2022-12-18T18:18:22;135.50;;;67.40;;
57291;SDS011;43144;50.972;18.220;2022-12-18T18:28:13;167.10;;;76.30;;
57291;SDS011;43144;50.972;18.220;2022-12-18T18:38:02;161.40;;;72.50;;
57291;SDS011;43144;50.972;18.220;2022-12-18T18:47:53;157.80;;;76.60;;
57291;SDS011;43144;50.972;18.220;2022-12-18T18:57:57;171.50;;;87.10;;
57291;SDS011;43144;50.972;18.220;2022-12-18T19:07:47;174.30;;;89.60;;
57291;SDS011;43144;50.972;18.220;2022-12-18T19:17:36;159.40;;;78.10;;
57291;SDS011;43144;50.972;18.220;2022-12-18T19:27:26;167.10;;;77.30;;
57291;SDS011;43144;50.972;18.220;2022-12-18T19:37:15;155.10;;;65.80;;
57291;SDS011;43144;50.972;18.220;2022-12-18T19:47:03;139.90;;;68.40;;
57291;SDS011;43144;50.972;18.220;2022-12-18T19:56:59;193.50;;;78.10;;
57291;SDS011;43144;50.972;18.220;2022-12-18T20:06:49;183.30;;;67.20;;
57291;SDS011;43144;50.972;18.220;2022-12-18T20:16:40;338.90;;;104.90;;
57291;SDS011;43144;50.972;18.220;2022-12-18T20:24:02;300.00;;;122.50;;
57291;SDS011;43144;50.972;18.220;2022-12-18T20:33:54;312.30;;;97.40;;
57291;SDS011;43144;50.972;18.220;2022-12-18T20:43:44;102.60;;;43.20;;
57291;SDS011;43144;50.972;18.220;2022-12-18T20:53:37;145.50;;;66.50;;
57291;SDS011;43144;50.972;18.220;2022-12-18T21:03:31;142.10;;;65.90;;
57291;SDS011;43144;50.972;18.220;2022-12-18T21:13:27;124.40;;;56.80;;
57291;SDS011;43144;50.972;18.220;2022-12-18T21:23:16;161.80;;;69.70;;
57291;SDS011;43144;50.972;18.220;2022-12-18T21:33:06;148.70;;;64.00;;
57291;SDS011;43144;50.972;18.220;2022-12-18T21:42:56;148.50;;;65.70;;
57291;SDS011;43144;50.972;18.220;2022-12-18T21:52:45;145.60;;;64.60;;
57291;SDS011;43144;50.972;18.220;2022-12-18T22:02:38;123.70;;;57.30;;
57291;SDS011;43144;50.972;18.220;2022-12-18T22:12:29;75.80;;;37.70;;
57291;SDS011;43144;50.972;18.220;2022-12-18T22:22:17;146.30;;;62.00;;
57291;SDS011;43144;50.972;18.220;2022-12-18T22:32:07;73.40;;;38.50;;
57291;SDS011;43144;50.972;18.220;2022-12-18T22:56:40;106.50;;;50.30;;
57291;SDS011;43144;50.972;18.220;2022-12-18T23:06:36;132.40;;;57.40;;
57291;SDS011;43144;50.972;18.220;2022-12-18T23:16:26;58.90;;;28.90;;
57291;SDS011;43144;50.972;18.220;2022-12-18T23:26:16;91.10;;;43.30;;
57291;SDS011;43144;50.972;18.220;2022-12-18T23:36:08;79.40;;;40.30;;
57291;SDS011;43144;50.972;18.220;2022-12-18T23:46:00;108.30;;;45.80;;
57291;SDS011;43144;50.972;18.220;2022-12-18T23:55:48;94.20;;;39.00;;
